sensor_id;sensor_type;location;lat;lon;timestamp;pressure;altitude;pressure_sealevel;temperature;humidity
54038;BME280;39954;48.844;9.726;2023-06-19T00:00:22;95704.25;;;22.04;47.45
54038;BME280;39954;48.844;9.726;2023-06-19T00:01:27;95694.84;;;22.01;46.45
54038;BME280;39954;48.844;9.726;2023-06-19T00:02:29;95700.00;;;21.95;47.09
54038;BME280;39954;48.844;9.726;2023-06-19T00:03:34;95697.00;;;21.89;47.30
54038;BME280;39954;48.844;9.726;2023-06-19T00:04:37;95699.50;;;21.91;46.95
54038;BME280;39954;48.844;9.726;2023-06-19T00:05:42;95703.97;;;21.90;46.80
54038;BME280;39954;48.844;9.726;2023-06-19T00:06:44;95704.47;;;21.86;46.54
54038;BME280;39954;48.844;9.726;2023-06-19T00:07:50;95699.84;;;21.88;47.47
54038;BME280;39954;48.844;9.726;2023-06-19T00:08:55;95707.09;;;21.86;46.58
54038;BME280;39954;48.844;9.726;2023-06-19T00:09:59;95711.56;;;21.85;46.72
54038;BME280;39954;48.844;9.726;2023-06-19T00:11:02;95713.22;;;21.86;47.01
54038;BME280;39954;48.844;9.726;2023-06-19T00:12:07;95704.13;;;21.89;46.88
54038;BME280;39954;48.844;9.726;2023-06-19T00:13:09;95712.41;;;21.86;46.91
54038;BME280;39954;48.844;9.726;2023-06-19T00:14:14;95712.72;;;21.83;47.36
54038;BME280;39954;48.844;9.726;2023-06-19T00:15:16;95719.03;;;21.82;47.46
54038;BME280;39954;48.844;9.726;2023-06-19T00:16:21;95712.25;;;21.79;47.91
54038;BME280;39954;48.844;9.726;2023-06-19T00:17:27;95713.72;;;21.82;46.96
54038;BME280;39954;48.844;9.726;2023-06-19T00:18:32;95710.25;;;21.81;46.82
54038;BME280;39954;48.844;9.726;2023-06-19T00:19:42;95714.22;;;21.77;47.51
54038;BME280;39954;48.844;9.726;2023-06-19T00:20:47;95714.69;;;21.73;47.63
54038;BME280;39954;48.844;9.726;2023-06-19T00:21:49;95709.06;;;21.67;48.12
54038;BME280;39954;48.844;9.726;2023-06-19T00:22:58;95707.09;;;21.78;48.41
54038;BME280;39954;48.844;9.726;2023-06-19T00:24:04;95704.47;;;21.78;48.01
54038;BME280;39954;48.844;9.726;2023-06-19T00:25:09;95707.59;;;21.73;48.41
54038;BME280;39954;48.844;9.726;2023-06-19T00:26:12;95709.06;;;21.67;47.63
54038;BME280;39954;48.844;9.726;2023-06-19T00:27:17;95708.09;;;21.60;48.24
54038;BME280;39954;48.844;9.726;2023-06-19T00:28:19;95703.81;;;21.59;47.98
54038;BME280;39954;48.844;9.726;2023-06-19T00:29:24;95702.66;;;21.54;48.54
54038;BME280;39954;48.844;9.726;2023-06-19T00:30:29;95706.09;;;21.46;48.77
54038;BME280;39954;48.844;9.726;2023-06-19T00:31:34;95706.13;;;21.54;48.99
54038;BME280;39954;48.844;9.726;2023-06-19T00:32:38;95699.16;;;21.53;48.89
54038;BME280;39954;48.844;9.726;2023-06-19T00:33:51;95706.09;;;21.46;48.75
54038;BME280;39954;48.844;9.726;2023-06-19T00:34:54;95699.81;;;21.39;49.32
54038;BME280;39954;48.844;9.726;2023-06-19T00:35:58;95699.13;;;21.37;49.40
54038;BME280;39954;48.844;9.726;2023-06-19T00:37:01;95707.03;;;21.29;49.48
54038;BME280;39954;48.844;9.726;2023-06-19T00:38:07;95703.38;;;21.21;49.60
54038;BME280;39954;48.844;9.726;2023-06-19T00:39:12;95705.34;;;21.19;48.87
54038;BME280;39954;48.844;9.726;2023-06-19T00:40:26;95702.06;;;21.09;49.33
54038;BME280;39954;48.844;9.726;2023-06-19T00:41:28;95704.50;;;21.02;49.73
54038;BME280;39954;48.844;9.726;2023-06-19T00:42:33;95705.97;;;20.97;49.93
54038;BME280;39954;48.844;9.726;2023-06-19T00:43:35;95709.41;;;20.89;50.24
54038;BME280;39954;48.844;9.726;2023-06-19T00:44:40;95708.53;;;20.81;50.50
54038;BME280;39954;48.844;9.726;2023-06-19T00:45:43;95714.63;;;20.73;50.98
54038;BME280;39954;48.844;9.726;2023-06-19T00:46:51;95705.69;;;20.66;51.25
54038;BME280;39954;48.844;9.726;2023-06-19T00:47:54;95706.69;;;20.65;50.98
54038;BME280;39954;48.844;9.726;2023-06-19T00:49:00;95709.78;;;20.60;51.31
54038;BME280;39954;48.844;9.726;2023-06-19T00:50:04;95709.97;;;20.59;51.89
54038;BME280;39954;48.844;9.726;2023-06-19T00:51:09;95713.75;;;20.56;52.58
54038;BME280;39954;48.844;9.726;2023-06-19T00:52:11;95706.56;;;20.48;51.76
54038;BME280;39954;48.844;9.726;2023-06-19T00:53:17;95708.72;;;20.45;52.08
54038;BME280;39954;48.844;9.726;2023-06-19T00:54:24;95712.13;;;20.37;52.39
54038;BME280;39954;48.844;9.726;2023-06-19T00:55:29;95712.56;;;20.32;52.98
54038;BME280;39954;48.844;9.726;2023-06-19T00:56:32;95715.84;;;20.26;53.15
54038;BME280;39954;48.844;9.726;2023-06-19T00:57:37;95718.28;;;20.20;54.10
54038;BME280;39954;48.844;9.726;2023-06-19T00:58:41;95713.47;;;20.15;54.71
54038;BME280;39954;48.844;9.726;2023-06-19T00:59:46;95716.97;;;20.24;53.41
54038;BME280;39954;48.844;9.726;2023-06-19T01:00:48;95722.06;;;20.17;54.12
54038;BME280;39954;48.844;9.726;2023-06-19T01:02:09;95718.38;;;20.10;54.11
54038;BME280;39954;48.844;9.726;2023-06-19T01:03:14;95725.09;;;20.04;54.56
54038;BME280;39954;48.844;9.726;2023-06-19T01:04:19;95722.94;;;20.00;55.26
54038;BME280;39954;48.844;9.726;2023-06-19T01:05:24;95722.41;;;19.96;55.32
54038;BME280;39954;48.844;9.726;2023-06-19T01:06:31;95725.34;;;19.93;56.06
54038;BME280;39954;48.844;9.726;2023-06-19T01:07:44;95726.47;;;19.90;55.26
54038;BME280;39954;48.844;9.726;2023-06-19T01:08:55;95723.34;;;19.87;56.08
54038;BME280;39954;48.844;9.726;2023-06-19T01:10:06;95725.44;;;19.83;56.85
54038;BME280;39954;48.844;9.726;2023-06-19T01:11:12;95726.72;;;19.79;57.32
54038;BME280;39954;48.844;9.726;2023-06-19T01:12:32;95724.41;;;19.76;57.95
54038;BME280;39954;48.844;9.726;2023-06-19T01:13:41;95728.34;;;19.72;57.09
54038;BME280;39954;48.844;9.726;2023-06-19T01:14:53;95725.84;;;19.71;57.33
54038;BME280;39954;48.844;9.726;2023-06-19T01:15:58;95727.47;;;19.72;57.43
54038;BME280;39954;48.844;9.726;2023-06-19T01:17:05;95727.66;;;19.70;57.12
54038;BME280;39954;48.844;9.726;2023-06-19T01:18:08;95725.84;;;19.71;57.74
54038;BME280;39954;48.844;9.726;2023-06-19T01:19:18;95726.00;;;19.69;57.75
54038;BME280;39954;48.844;9.726;2023-06-19T01:20:21;95735.38;;;19.72;56.66
54038;BME280;39954;48.844;9.726;2023-06-19T01:21:26;95728.97;;;19.74;56.63
54038;BME280;39954;48.844;9.726;2023-06-19T01:22:31;95728.69;;;19.77;56.90
54038;BME280;39954;48.844;9.726;2023-06-19T01:23:36;95719.50;;;19.81;56.99
54038;BME280;39954;48.844;9.726;2023-06-19T01:24:38;95716.72;;;19.83;57.03
54038;BME280;39954;48.844;9.726;2023-06-19T01:25:43;95729.72;;;19.84;56.94
54038;BME280;39954;48.844;9.726;2023-06-19T01:26:45;95727.78;;;19.86;56.66
54038;BME280;39954;48.844;9.726;2023-06-19T01:27:50;95725.81;;;19.88;57.27
54038;BME280;39954;48.844;9.726;2023-06-19T01:28:53;95732.28;;;19.94;57.53
54038;BME280;39954;48.844;9.726;2023-06-19T01:29:59;95735.59;;;19.96;56.88
54038;BME280;39954;48.844;9.726;2023-06-19T01:31:02;95729.88;;;20.01;56.82
54038;BME280;39954;48.844;9.726;2023-06-19T01:32:10;95727.91;;;20.03;57.70
54038;BME280;39954;48.844;9.726;2023-06-19T01:33:18;95728.47;;;20.15;56.65
54038;BME280;39954;48.844;9.726;2023-06-19T01:34:25;95732.63;;;20.17;56.95
54038;BME280;39954;48.844;9.726;2023-06-19T01:35:31;95730.81;;;20.18;57.26
54038;BME280;39954;48.844;9.726;2023-06-19T01:36:37;95736.06;;;20.18;57.52
54038;BME280;39954;48.844;9.726;2023-06-19T01:37:42;95733.25;;;20.19;56.94
54038;BME280;39954;48.844;9.726;2023-06-19T01:38:48;95741.19;;;20.19;57.10
54038;BME280;39954;48.844;9.726;2023-06-19T01:39:51;95733.94;;;20.21;57.31
54038;BME280;39954;48.844;9.726;2023-06-19T01:40:57;95740.28;;;20.28;56.71
54038;BME280;39954;48.844;9.726;2023-06-19T01:42:01;95746.19;;;20.30;55.79
54038;BME280;39954;48.844;9.726;2023-06-19T01:43:07;95744.25;;;20.32;55.99
54038;BME280;39954;48.844;9.726;2023-06-19T01:44:10;95748.25;;;20.37;56.00
54038;BME280;39954;48.844;9.726;2023-06-19T01:45:15;95739.25;;;20.47;55.33
54038;BME280;39954;48.844;9.726;2023-06-19T01:46:17;95742.69;;;20.48;55.24
54038;BME280;39954;48.844;9.726;2023-06-19T01:47:22;95749.78;;;20.47;55.88
54038;BME280;39954;48.844;9.726;2023-06-19T01:48:25;95749.78;;;20.47;54.80
54038;BME280;39954;48.844;9.726;2023-06-19T01:49:29;95745.72;;;20.53;54.57
54038;BME280;39954;48.844;9.726;2023-06-19T01:50:31;95754.53;;;20.62;54.09
54038;BME280;39954;48.844;9.726;2023-06-19T01:51:36;95750.56;;;20.66;54.07
54038;BME280;39954;48.844;9.726;2023-06-19T01:52:38;95753.88;;;20.68;54.05
54038;BME280;39954;48.844;9.726;2023-06-19T01:53:46;95756.66;;;20.66;54.01
54038;BME280;39954;48.844;9.726;2023-06-19T01:54:48;95764.94;;;20.71;53.79
54038;BME280;39954;48.844;9.726;2023-06-19T01:55:52;95769.28;;;20.81;53.56
54038;BME280;39954;48.844;9.726;2023-06-19T01:56:56;95768.31;;;20.82;53.44
54038;BME280;39954;48.844;9.726;2023-06-19T01:58:01;95768.63;;;20.78;53.95
54038;BME280;39954;48.844;9.726;2023-06-19T01:59:03;95776.69;;;20.77;54.11
54038;BME280;39954;48.844;9.726;2023-06-19T02:00:08;95774.78;;;20.87;53.84
54038;BME280;39954;48.844;9.726;2023-06-19T02:01:12;95777.88;;;20.83;54.12
54038;BME280;39954;48.844;9.726;2023-06-19T02:02:16;95775.22;;;20.83;54.23
54038;BME280;39954;48.844;9.726;2023-06-19T02:03:19;95769.34;;;20.97;54.25
54038;BME280;39954;48.844;9.726;2023-06-19T02:04:23;95779.59;;;21.00;54.21
54038;BME280;39954;48.844;9.726;2023-06-19T02:05:26;95777.63;;;21.02;54.54
54038;BME280;39954;48.844;9.726;2023-06-19T02:06:30;95781.91;;;21.03;54.35
54038;BME280;39954;48.844;9.726;2023-06-19T02:07:33;95777.94;;;20.99;54.70
54038;BME280;39954;48.844;9.726;2023-06-19T02:08:37;95777.31;;;21.05;55.00
54038;BME280;39954;48.844;9.726;2023-06-19T02:09:42;95774.38;;;21.16;55.13
54038;BME280;39954;48.844;9.726;2023-06-19T02:10:47;95783.63;;;21.12;55.52
54038;BME280;39954;48.844;9.726;2023-06-19T02:11:49;95787.59;;;21.16;56.42
54038;BME280;39954;48.844;9.726;2023-06-19T02:12:54;95779.69;;;21.24;56.96
54038;BME280;39954;48.844;9.726;2023-06-19T02:13:56;95785.97;;;21.23;57.51
54038;BME280;39954;48.844;9.726;2023-06-19T02:15:01;95786.44;;;21.19;57.57
54038;BME280;39954;48.844;9.726;2023-06-19T02:16:03;95792.19;;;21.14;58.03
54038;BME280;39954;48.844;9.726;2023-06-19T02:17:08;95791.56;;;21.12;58.61
54038;BME280;39954;48.844;9.726;2023-06-19T02:18:10;95789.22;;;21.09;58.53
54038;BME280;39954;48.844;9.726;2023-06-19T02:19:15;95786.06;;;21.06;59.10
54038;BME280;39954;48.844;9.726;2023-06-19T02:20:17;95785.41;;;21.04;59.72
54038;BME280;39954;48.844;9.726;2023-06-19T02:21:22;95781.91;;;21.03;59.92
54038;BME280;39954;48.844;9.726;2023-06-19T02:22:25;95779.28;;;21.03;60.16
54038;BME280;39954;48.844;9.726;2023-06-19T02:23:29;95783.28;;;21.07;60.24
54038;BME280;39954;48.844;9.726;2023-06-19T02:24:32;95780.28;;;21.02;60.23
54038;BME280;39954;48.844;9.726;2023-06-19T02:25:42;95781.59;;;20.98;60.87
54038;BME280;39954;48.844;9.726;2023-06-19T02:26:44;95780.22;;;20.94;61.18
54038;BME280;39954;48.844;9.726;2023-06-19T02:27:49;95774.81;;;20.95;61.31
54038;BME280;39954;48.844;9.726;2023-06-19T02:28:51;95776.91;;;20.92;61.74
54038;BME280;39954;48.844;9.726;2023-06-19T02:29:56;95780.56;;;20.91;62.11
54038;BME280;39954;48.844;9.726;2023-06-19T02:30:58;95783.34;;;20.89;62.01
54038;BME280;39954;48.844;9.726;2023-06-19T02:32:03;95785.66;;;20.84;62.33
54038;BME280;39954;48.844;9.726;2023-06-19T02:33:05;95785.28;;;20.79;63.14
54038;BME280;39954;48.844;9.726;2023-06-19T02:34:10;95782.44;;;20.72;64.53
54038;BME280;39954;48.844;9.726;2023-06-19T02:35:12;95784.06;;;20.65;64.59
54038;BME280;39954;48.844;9.726;2023-06-19T02:36:17;95787.34;;;20.59;64.76
54038;BME280;39954;48.844;9.726;2023-06-19T02:37:21;95790.44;;;20.54;65.68
54038;BME280;39954;48.844;9.726;2023-06-19T02:38:26;95784.75;;;20.49;66.44
54038;BME280;39954;48.844;9.726;2023-06-19T02:39:29;95788.38;;;20.48;66.75
54038;BME280;39954;48.844;9.726;2023-06-19T02:40:34;95782.38;;;20.56;66.27
54038;BME280;39954;48.844;9.726;2023-06-19T02:41:38;95780.97;;;20.52;66.45
54038;BME280;39954;48.844;9.726;2023-06-19T02:42:47;95790.34;;;20.46;66.97
54038;BME280;39954;48.844;9.726;2023-06-19T02:43:49;95783.56;;;20.44;67.18
54038;BME280;39954;48.844;9.726;2023-06-19T02:44:54;95790.22;;;20.48;67.18
54038;BME280;39954;48.844;9.726;2023-06-19T02:45:56;95784.94;;;20.48;67.31
54038;BME280;39954;48.844;9.726;2023-06-19T02:47:01;95790.84;;;20.42;68.04
54038;BME280;39954;48.844;9.726;2023-06-19T02:48:04;95794.75;;;20.38;68.82
54038;BME280;39954;48.844;9.726;2023-06-19T02:49:09;95791.97;;;20.39;68.29
54038;BME280;39954;48.844;9.726;2023-06-19T02:50:11;95789.47;;;20.38;68.69
54038;BME280;39954;48.844;9.726;2023-06-19T02:51:16;95789.91;;;20.33;69.43
54038;BME280;39954;48.844;9.726;2023-06-19T02:52:18;95794.00;;;20.27;69.84
54038;BME280;39954;48.844;9.726;2023-06-19T02:53:23;95796.44;;;20.21;70.71
54038;BME280;39954;48.844;9.726;2023-06-19T02:54:25;95784.69;;;20.15;71.64
54038;BME280;39954;48.844;9.726;2023-06-19T02:55:29;95786.66;;;20.13;72.42
54038;BME280;39954;48.844;9.726;2023-06-19T02:56:32;95790.28;;;20.12;72.61
54038;BME280;39954;48.844;9.726;2023-06-19T02:57:39;95785.50;;;20.16;71.87
54038;BME280;39954;48.844;9.726;2023-06-19T02:58:41;95792.28;;;20.18;72.33
54038;BME280;39954;48.844;9.726;2023-06-19T02:59:46;95795.63;;;20.20;72.29
54038;BME280;39954;48.844;9.726;2023-06-19T03:00:50;95796.06;;;20.16;72.43
54038;BME280;39954;48.844;9.726;2023-06-19T03:01:55;95792.41;;;20.08;73.39
54038;BME280;39954;48.844;9.726;2023-06-19T03:02:57;95785.06;;;20.02;74.77
54038;BME280;39954;48.844;9.726;2023-06-19T03:04:02;95799.19;;;20.11;73.81
54038;BME280;39954;48.844;9.726;2023-06-19T03:05:05;95790.66;;;20.17;73.42
54038;BME280;39954;48.844;9.726;2023-06-19T03:06:10;95792.47;;;20.17;73.42
54038;BME280;39954;48.844;9.726;2023-06-19T03:07:12;95791.41;;;20.09;74.39
54038;BME280;39954;48.844;9.726;2023-06-19T03:08:18;95798.88;;;20.14;74.45
54038;BME280;39954;48.844;9.726;2023-06-19T03:09:20;95796.25;;;20.14;74.63
54038;BME280;39954;48.844;9.726;2023-06-19T03:10:25;95794.03;;;20.09;75.95
54038;BME280;39954;48.844;9.726;2023-06-19T03:11:28;95794.50;;;20.05;75.39
54038;BME280;39954;48.844;9.726;2023-06-19T03:12:32;95803.72;;;20.01;76.43
54038;BME280;39954;48.844;9.726;2023-06-19T03:13:44;95796.78;;;20.00;76.78
54038;BME280;39954;48.844;9.726;2023-06-19T03:14:50;95803.63;;;19.93;77.50
54038;BME280;39954;48.844;9.726;2023-06-19T03:15:52;95802.00;;;19.92;77.96
54038;BME280;39954;48.844;9.726;2023-06-19T03:16:57;95807.91;;;19.94;77.89
54038;BME280;39954;48.844;9.726;2023-06-19T03:17:59;95797.69;;;19.90;77.31
54038;BME280;39954;48.844;9.726;2023-06-19T03:19:06;95801.91;;;19.83;78.90
54038;BME280;39954;48.844;9.726;2023-06-19T03:20:09;95803.03;;;19.81;78.89
54038;BME280;39954;48.844;9.726;2023-06-19T03:21:15;95808.06;;;19.74;79.80
54038;BME280;39954;48.844;9.726;2023-06-19T03:22:19;95803.41;;;19.68;80.17
54038;BME280;39954;48.844;9.726;2023-06-19T03:23:23;95803.69;;;19.65;80.30
54038;BME280;39954;48.844;9.726;2023-06-19T03:24:25;95809.25;;;19.62;81.04
54038;BME280;39954;48.844;9.726;2023-06-19T03:25:30;95807.56;;;19.71;80.39
54038;BME280;39954;48.844;9.726;2023-06-19T03:26:36;95809.50;;;19.68;80.70
54038;BME280;39954;48.844;9.726;2023-06-19T03:27:41;95807.31;;;19.64;81.10
54038;BME280;39954;48.844;9.726;2023-06-19T03:28:46;95808.56;;;19.60;81.90
54038;BME280;39954;48.844;9.726;2023-06-19T03:29:51;95811.50;;;19.57;83.38
54038;BME280;39954;48.844;9.726;2023-06-19T03:30:54;95817.06;;;19.54;83.24
54038;BME280;39954;48.844;9.726;2023-06-19T03:31:58;95816.56;;;19.50;83.42
54038;BME280;39954;48.844;9.726;2023-06-19T03:33:01;95818.50;;;19.48;83.41
54038;BME280;39954;48.844;9.726;2023-06-19T03:34:05;95819.63;;;19.45;84.19
54038;BME280;39954;48.844;9.726;2023-06-19T03:35:08;95814.66;;;19.42;84.70
54038;BME280;39954;48.844;9.726;2023-06-19T03:36:13;95823.53;;;19.41;85.35
54038;BME280;39954;48.844;9.726;2023-06-19T03:37:18;95813.97;;;19.40;84.71
54038;BME280;39954;48.844;9.726;2023-06-19T03:38:20;95828.34;;;19.46;84.12
54038;BME280;39954;48.844;9.726;2023-06-19T03:39:25;95824.00;;;19.55;83.29
54038;BME280;39954;48.844;9.726;2023-06-19T03:40:27;95823.56;;;19.59;82.69
54038;BME280;39954;48.844;9.726;2023-06-19T03:41:33;95822.69;;;19.68;82.28
54038;BME280;39954;48.844;9.726;2023-06-19T03:42:35;95825.06;;;19.62;83.09
54038;BME280;39954;48.844;9.726;2023-06-19T03:43:40;95827.31;;;19.57;83.99
54038;BME280;39954;48.844;9.726;2023-06-19T03:44:44;95837.47;;;19.52;84.99
54038;BME280;39954;48.844;9.726;2023-06-19T03:45:49;95826.41;;;19.48;84.95
54038;BME280;39954;48.844;9.726;2023-06-19T03:46:51;95822.25;;;19.45;85.23
54038;BME280;39954;48.844;9.726;2023-06-19T03:47:56;95833.09;;;19.42;86.34
54038;BME280;39954;48.844;9.726;2023-06-19T03:48:58;95829.75;;;19.40;87.07
54038;BME280;39954;48.844;9.726;2023-06-19T03:50:06;95833.25;;;19.41;87.47
54038;BME280;39954;48.844;9.726;2023-06-19T03:51:22;95840.16;;;19.42;86.66
54038;BME280;39954;48.844;9.726;2023-06-19T03:52:27;95839.34;;;19.41;87.00
54038;BME280;39954;48.844;9.726;2023-06-19T03:53:29;95841.97;;;19.41;87.61
54038;BME280;39954;48.844;9.726;2023-06-19T03:54:33;95837.97;;;19.37;89.14
54038;BME280;39954;48.844;9.726;2023-06-19T03:55:36;95839.94;;;19.35;89.39
54038;BME280;39954;48.844;9.726;2023-06-19T03:56:40;95838.44;;;19.33;89.16
54038;BME280;39954;48.844;9.726;2023-06-19T03:57:42;95831.06;;;19.36;89.91
54038;BME280;39954;48.844;9.726;2023-06-19T03:58:47;95841.44;;;19.38;89.75
54038;BME280;39954;48.844;9.726;2023-06-19T03:59:52;95842.41;;;19.37;91.03
54038;BME280;39954;48.844;9.726;2023-06-19T04:00:57;95841.06;;;19.33;92.90
54038;BME280;39954;48.844;9.726;2023-06-19T04:02:00;95843.84;;;19.31;93.02
54038;BME280;39954;48.844;9.726;2023-06-19T04:03:05;95841.34;;;19.30;94.46
54038;BME280;39954;48.844;9.726;2023-06-19T04:04:07;95844.94;;;19.29;94.51
54038;BME280;39954;48.844;9.726;2023-06-19T04:05:13;95846.91;;;19.27;95.58
54038;BME280;39954;48.844;9.726;2023-06-19T04:06:15;95843.03;;;19.21;97.89
54038;BME280;39954;48.844;9.726;2023-06-19T04:07:20;95846.97;;;19.17;98.12
54038;BME280;39954;48.844;9.726;2023-06-19T04:08:22;95843.03;;;19.21;99.35
54038;BME280;39954;48.844;9.726;2023-06-19T04:09:27;95850.00;;;19.22;99.09
54038;BME280;39954;48.844;9.726;2023-06-19T04:10:29;95847.06;;;19.25;99.13
54038;BME280;39954;48.844;9.726;2023-06-19T04:11:36;95850.75;;;19.32;98.13
54038;BME280;39954;48.844;9.726;2023-06-19T04:12:38;95853.31;;;19.24;100.00
54038;BME280;39954;48.844;9.726;2023-06-19T04:13:44;95852.22;;;19.17;100.00
54038;BME280;39954;48.844;9.726;2023-06-19T04:14:46;95853.97;;;19.26;100.00
54038;BME280;39954;48.844;9.726;2023-06-19T04:15:53;95860.22;;;19.25;100.00
54038;BME280;39954;48.844;9.726;2023-06-19T04:16:56;95857.19;;;19.20;100.00
54038;BME280;39954;48.844;9.726;2023-06-19T04:18:00;95860.81;;;19.19;100.00
54038;BME280;39954;48.844;9.726;2023-06-19T04:19:03;95859.84;;;19.20;100.00
54038;BME280;39954;48.844;9.726;2023-06-19T04:20:09;95862.16;;;19.23;100.00
54038;BME280;39954;48.844;9.726;2023-06-19T04:21:14;95861.47;;;19.21;100.00
54038;BME280;39954;48.844;9.726;2023-06-19T04:22:19;95865.22;;;19.18;100.00
54038;BME280;39954;48.844;9.726;2023-06-19T04:23:21;95868.31;;;19.14;100.00
54038;BME280;39954;48.844;9.726;2023-06-19T04:24:25;95862.06;;;19.15;100.00
54038;BME280;39954;48.844;9.726;2023-06-19T04:25:28;95866.63;;;19.22;100.00
54038;BME280;39954;48.844;9.726;2023-06-19T04:26:32;95866.75;;;19.21;100.00
54038;BME280;39954;48.844;9.726;2023-06-19T04:27:34;95857.72;;;19.23;100.00
54038;BME280;39954;48.844;9.726;2023-06-19T04:28:39;95860.81;;;19.19;100.00
54038;BME280;39954;48.844;9.726;2023-06-19T04:29:41;95863.16;;;19.22;100.00
54038;BME280;39954;48.844;9.726;2023-06-19T04:30:46;95863.44;;;19.19;100.00
54038;BME280;39954;48.844;9.726;2023-06-19T04:31:51;95869.66;;;19.28;100.00
54038;BME280;39954;48.844;9.726;2023-06-19T04:32:57;95862.28;;;19.31;100.00
54038;BME280;39954;48.844;9.726;2023-06-19T04:33:59;95865.72;;;19.32;100.00
54038;BME280;39954;48.844;9.726;2023-06-19T04:35:07;95868.38;;;19.32;100.00
54038;BME280;39954;48.844;9.726;2023-06-19T04:36:09;95866.00;;;19.38;100.00
54038;BME280;39954;48.844;9.726;2023-06-19T04:37:14;95870.66;;;19.44;100.00
54038;BME280;39954;48.844;9.726;2023-06-19T04:38:20;95879.94;;;19.49;100.00
54038;BME280;39954;48.844;9.726;2023-06-19T04:39:26;95875.34;;;19.51;100.00
54038;BME280;39954;48.844;9.726;2023-06-19T04:40:28;95876.03;;;19.53;100.00
54038;BME280;39954;48.844;9.726;2023-06-19T04:41:34;95877.47;;;19.65;100.00
54038;BME280;39954;48.844;9.726;2023-06-19T04:42:40;95877.00;;;19.52;100.00
54038;BME280;39954;48.844;9.726;2023-06-19T04:43:42;95881.16;;;19.54;100.00
54038;BME280;39954;48.844;9.726;2023-06-19T04:44:47;95873.63;;;19.59;100.00
54038;BME280;39954;48.844;9.726;2023-06-19T04:45:49;95872.09;;;19.66;100.00
54038;BME280;39954;48.844;9.726;2023-06-19T04:46:57;95882.75;;;19.75;100.00
54038;BME280;39954;48.844;9.726;2023-06-19T04:48:03;95884.00;;;19.71;100.00
54038;BME280;39954;48.844;9.726;2023-06-19T04:49:08;95884.44;;;19.66;100.00
54038;BME280;39954;48.844;9.726;2023-06-19T04:50:11;95888.75;;;19.67;100.00
54038;BME280;39954;48.844;9.726;2023-06-19T04:51:17;95889.78;;;19.74;100.00
54038;BME280;39954;48.844;9.726;2023-06-19T04:52:22;95881.00;;;19.83;100.00
54038;BME280;39954;48.844;9.726;2023-06-19T04:53:27;95876.66;;;19.92;99.28
54038;BME280;39954;48.844;9.726;2023-06-19T04:54:29;95889.63;;;20.03;97.99
54038;BME280;39954;48.844;9.726;2023-06-19T04:55:35;95878.91;;;20.05;97.51
54038;BME280;39954;48.844;9.726;2023-06-19T04:56:37;95883.13;;;19.98;98.14
54038;BME280;39954;48.844;9.726;2023-06-19T04:57:42;95884.47;;;20.02;96.90
54038;BME280;39954;48.844;9.726;2023-06-19T04:58:44;95882.53;;;20.04;96.61
54038;BME280;39954;48.844;9.726;2023-06-19T04:59:50;95882.53;;;20.04;96.71
54038;BME280;39954;48.844;9.726;2023-06-19T05:00:52;95887.19;;;20.10;97.54
54038;BME280;39954;48.844;9.726;2023-06-19T05:02:00;95888.00;;;20.10;96.67
54038;BME280;39954;48.844;9.726;2023-06-19T05:03:02;95889.53;;;20.13;98.06
54038;BME280;39954;48.844;9.726;2023-06-19T05:04:07;95883.28;;;20.14;97.99
54038;BME280;39954;48.844;9.726;2023-06-19T05:05:09;95892.94;;;20.23;96.05
54038;BME280;39954;48.844;9.726;2023-06-19T05:06:14;95884.41;;;20.29;93.97
54038;BME280;39954;48.844;9.726;2023-06-19T05:07:16;95890.97;;;20.25;94.35
54038;BME280;39954;48.844;9.726;2023-06-19T05:08:21;95892.94;;;20.23;96.07
54038;BME280;39954;48.844;9.726;2023-06-19T05:09:26;95903.47;;;20.23;94.33
54038;BME280;39954;48.844;9.726;2023-06-19T05:10:28;95906.50;;;20.28;94.19
54038;BME280;39954;48.844;9.726;2023-06-19T05:11:33;95902.66;;;20.23;94.43
54038;BME280;39954;48.844;9.726;2023-06-19T05:12:35;95898.72;;;20.27;94.39
54038;BME280;39954;48.844;9.726;2023-06-19T05:13:40;95900.41;;;20.28;95.02
54038;BME280;39954;48.844;9.726;2023-06-19T05:14:42;95889.97;;;20.26;93.48
54038;BME280;39954;48.844;9.726;2023-06-19T05:15:46;95901.44;;;20.35;93.21
54038;BME280;39954;48.844;9.726;2023-06-19T05:16:50;95896.31;;;20.33;93.28
54038;BME280;39954;48.844;9.726;2023-06-19T05:17:57;95894.50;;;20.34;92.91
54038;BME280;39954;48.844;9.726;2023-06-19T05:19:00;95895.03;;;20.38;93.69
54038;BME280;39954;48.844;9.726;2023-06-19T05:20:06;95892.38;;;20.38;92.84
54038;BME280;39954;48.844;9.726;2023-06-19T05:21:09;95895.63;;;20.31;94.45
54038;BME280;39954;48.844;9.726;2023-06-19T05:22:14;95891.69;;;20.35;93.68
54038;BME280;39954;48.844;9.726;2023-06-19T05:23:16;95894.41;;;20.44;93.92
54038;BME280;39954;48.844;9.726;2023-06-19T05:24:21;95892.75;;;20.43;94.20
54038;BME280;39954;48.844;9.726;2023-06-19T05:25:23;95888.16;;;20.45;92.93
54038;BME280;39954;48.844;9.726;2023-06-19T05:26:29;95886.50;;;20.44;92.63
54038;BME280;39954;48.844;9.726;2023-06-19T05:27:31;95894.47;;;20.52;92.47
54038;BME280;39954;48.844;9.726;2023-06-19T05:28:36;95893.75;;;20.42;94.53
54038;BME280;39954;48.844;9.726;2023-06-19T05:29:38;95898.41;;;20.30;96.13
54038;BME280;39954;48.844;9.726;2023-06-19T05:30:43;95893.38;;;20.37;94.92
54038;BME280;39954;48.844;9.726;2023-06-19T05:31:46;95889.38;;;20.50;93.41
54038;BME280;39954;48.844;9.726;2023-06-19T05:32:52;95890.88;;;20.35;95.74
54038;BME280;39954;48.844;9.726;2023-06-19T05:33:57;95890.75;;;20.37;96.81
54038;BME280;39954;48.844;9.726;2023-06-19T05:35:04;95897.91;;;20.26;97.60
54038;BME280;39954;48.844;9.726;2023-06-19T05:36:06;95903.16;;;20.26;97.85
54038;BME280;39954;48.844;9.726;2023-06-19T05:37:12;95902.78;;;20.21;98.47
54038;BME280;39954;48.844;9.726;2023-06-19T05:38:14;95896.59;;;20.30;98.60
54038;BME280;39954;48.844;9.726;2023-06-19T05:39:19;95903.78;;;20.20;100.00
54038;BME280;39954;48.844;9.726;2023-06-19T05:40:21;95909.13;;;20.28;100.00
54038;BME280;39954;48.844;9.726;2023-06-19T05:41:27;95914.69;;;20.43;99.02